Relevés horaires Les Attelas (Suisse)


Relevés horaires à Les Attelas - Mardi 25 Sept. 2018
Heure UTC1 Température [°C] Vent [km/h] Hum. [%] Pres.4 [hPa] Visi. [Km] Nébu. [octa] Préc.5 [mm] Cond.
2m. Res. Ros. Dir.2 Vit. Moy. Raf.3
19:00 4.3 4.3 0.6 E 3.7 -- 16.7 77 700(0.6/3h) -- -- -- --
18:00 4.2 1.5 0.4 NE 11.1 -- 24.1 76 700(0.4/3h) -- -- -- --
17:00 4.3 4.3 1.9 NNE 3.7 -- 14.8 84 700(0.2/3h) -- -- -- --
16:00 4.8 4.8 2.7 E 3.7 -- 18.5 86 700(0.0/3h) -- -- -- --
15:00 6.1 4.6 3.1 SO 7.4 -- 24.1 81 700(0.0/3h) -- -- -- --
14:00 7.8 6.1 3.4 SO 9.3 -- 22.2 74 700(0.2/3h) -- -- -- --
13:00 7.6 6.8 2.8 O 5.6 -- 24.1 72 700(0.3/3h) -- -- -- --
12:00 6.2 5.2 2.2 OSO 5.6 -- 31.5 75 700(0.4/3h) -- -- -- --
11:00 7.1 6.3 2.1 OSO 5.6 -- 20.4 70 700(0.7/3h) -- -- -- --
10:00 6.8 5.9 1.3 O 5.6 -- 16.7 68 700(1.3/3h) -- -- -- --
09:00 4.5 2.7 0.9 NO 7.4 -- 31.5 77 700(1.4/3h) -- -- -- --
08:00 3.4 0.9 0.4 ONO 9.3 -- 27.8 81 700(1.1/3h) -- -- -- --
07:00 2.8 -0.9 -0.1 OSO 14.8 -- 31.5 81 700(0.6/3h) -- -- -- --
06:00 2.5 -2.1 0.4 OSO 20.4 -- 33.3 86 700(0.4/3h) -- -- -- --
05:00 2.2 -1.7 0.2 OSO 14.8 -- 33.3 87 700(0.2/3h) -- -- -- --
04:00 2.4 -1.1 -0.5 SO 13.0 -- 25.9 81 700(0.3/3h) -- -- -- --
03:00 2.6 -0 -5.0 OSO 9.3 -- 18.5 57 700(0.5/3h) -- -- -- --
02:00 1.9 1.9 -4.8 ESE 1.9 -- 16.7 61 700(0.6/3h) -- -- -- --
01:00 1.5 -0.8 -4.7 N 7.4 -- 11.1 63 700(0.3/3h) -- -- -- --
00:00 2.5 2.5 -4.4 O 3.7 -- 24.1 60 700(0.3/3h) -- -- -- --

1 Coordinated Universal Time. Actuellement il est 22:00 locale et 20:00 UTC.

2 Le vent souffle depuis la direction indiquée vers la direction oposée.

3 Les rafales max. sont disponible 40 min après l'heure du relevé.

4 Pour les stations d'altitude (plus de 600m) le géopotentiel du niveau le plus proche de la pression obligatoire est indiqué.

5 Les stations disposant d'un diffuseur peuvent indiquer "trace". Cela signifie que des précipitations ont touchés le sol mais que la quantité est inférieure à 0.1 mm.

Récapitulatif de la journée
Température [°C] Vent [km/h] Ensoleillement4 [h] Precipitations totale5 [mm] Pression [Hpa]
Min1 Max.2 Moy.3 Max. Min Max.
0.8 7.9 0 33.3 0 h 0 min 0 700.0 700.0

1 Température minimale relevée entre 18:00 UTC la veille et 18:00 UTC le jour donné.

2 Température maximale relevée entre 06:00 UTC le jour donné et 06:00 UTC le lendemain.

3 Vent moyen de la journée basé sur les relevés horaires.

4 Ensoleillement en heures relevé entre 06:00 UTC la veille et 06:00 UTC le jour donné.

5 Précipitations totales tombées entre 06:00 UTC la jour donné et 06:00 UTC le lendemain.

Graphiques horaires